Armidale, Australia
Current Conditions -  °F | °C
As of 4:30 AM on Saturday 20 Dec 2014 (Local Time) from YSTW Reporting Station
Clear Clear  
Wind Chill: 63°   Ceiling: Unl
Heat Index: 63°   Visibility: 6mi
Dew Point: 52°   Wind: 12mph
Humidity: 68%   Direction: 130°SE
Pressure: 29.94"   Gusts: NA
Location:  30.52°S, 151.67°E
Report Text: YSTW 191730Z AUTO 13010KT 9999 // NCD 17/11 Q1014
Loading
Personal Weather Stations






























Interactive Weather Map New forecast layout! Learn more

10-Day Weather Forecast

Advertisements
Track Severe Weather on mobile